Time;durP1;ratioP1;P1;durP2;ratioP2;P2;SDS_P1;SDS_P2;PMS_P1;PMS_P2;Temp;Humidity;BMP_temperature;BMP_pressure;BME280_temperature;BME280_humidity;BME280_pressure;Samples;Min_cycle;Max_cycle;Signal;HPM_P1;HPM_P2
2022/09/28 00:00:27;;;;;;;0.10;0.10;;;9.40;99.90;;;;;;5035497;28;20958;-72
2022/09/28 00:02:57;;;;;;;0.10;0.10;;;9.40;99.90;;;;;;5037743;28;20094;-72
2022/09/28 00:05:25;;;;;;;0.20;0.20;;;9.40;99.90;;;;;;5026046;28;20077;-72
2022/09/28 00:07:55;;;;;;;0.10;0.10;;;9.40;99.90;;;;;;5016623;28;20139;-72
2022/09/28 00:10:21;;;;;;;0.63;0.47;;;9.50;99.90;;;;;;5031989;28;20150;-72
2022/09/28 00:12:49;;;;;;;0.20;0.20;;;9.50;99.90;;;;;;5052808;28;20052;-73
2022/09/28 00:15:15;;;;;;;0.10;0.10;;;9.50;99.90;;;;;;5031564;28;20051;-74
2022/09/28 00:17:42;;;;;;;0.10;0.10;;;9.50;99.90;;;;;;5027225;28;20041;-73
2022/09/28 00:20:08;;;;;;;0.17;0.17;;;9.50;99.90;;;;;;5023407;28;20112;-73
2022/09/28 00:22:34;;;;;;;0.40;0.40;;;9.50;99.90;;;;;;5020631;28;20068;-73
2022/09/28 00:24:59;;;;;;;0.10;0.10;;;9.50;99.90;;;;;;5015325;28;20080;-73
2022/09/28 00:27:25;;;;;;;0.15;0.15;;;9.60;99.90;;;;;;5034451;28;20041;-74
2022/09/28 00:29:50;;;;;;;0.10;0.10;;;9.50;99.90;;;;;;5039912;28;20036;-72
2022/09/28 00:32:16;;;;;;;0.00;0.00;;;9.50;99.90;;;;;;5034294;28;20154;-72
2022/09/28 00:34:47;;;;;;;0.10;0.10;;;9.50;99.90;;;;;;5023552;28;20132;-72
2022/09/28 00:37:14;;;;;;;1.50;1.40;;;9.50;99.90;;;;;;5030238;28;20055;-72
2022/09/28 00:39:43;;;;;;;0.10;0.10;;;9.60;99.90;;;;;;5019810;28;20037;-73
2022/09/28 00:42:21;;;;;;;0.10;0.10;;;9.60;99.90;;;;;;5025834;28;20044;-72
2022/09/28 00:44:57;;;;;;;0.00;0.00;;;9.60;99.90;;;;;;5042729;28;20636;-71
2022/09/28 00:47:48;;;;;;;0.32;0.32;;;9.60;99.90;;;;;;5029020;28;20812;-72
2022/09/28 00:50:20;;;;;;;0.10;0.10;;;9.60;99.90;;;;;;5014473;28;20065;-72
2022/09/28 00:53:01;;;;;;;0.10;0.10;;;9.60;99.90;;;;;;5038825;28;20060;-71
2022/09/28 00:55:36;;;;;;;2.00;0.65;;;9.60;99.90;;;;;;5025526;28;20799;-73
2022/09/28 00:58:05;;;;;;;0.28;0.28;;;9.50;99.90;;;;;;5019401;28;20060;-73
2022/09/28 01:00:31;;;;;;;0.10;0.10;;;9.50;99.90;;;;;;5028494;28;20049;-73
2022/09/28 01:02:58;;;;;;;0.10;0.10;;;9.50;99.90;;;;;;5019111;28;20207;-75
2022/09/28 01:05:25;;;;;;;0.10;0.10;;;9.50;99.90;;;;;;5020383;28;20110;-72
2022/09/28 01:07:51;;;;;;;0.10;0.10;;;9.60;99.90;;;;;;5034665;28;20037;-74
2022/09/28 01:10:17;;;;;;;0.30;0.30;;;9.50;99.90;;;;;;5026688;28;20053;-74
2022/09/28 01:12:42;;;;;;;0.10;0.10;;;9.50;99.90;;;;;;5029917;28;20409;-72
2022/09/28 01:15:08;;;;;;;0.10;0.10;;;9.50;99.90;;;;;;5025963;28;20048;-72
2022/09/28 01:17:49;;;;;;;0.10;0.10;;;9.50;99.90;;;;;;5024043;28;20046;-72
2022/09/28 01:20:44;;;;;;;0.00;0.00;;;9.40;99.90;;;;;;5027912;28;20106;-72
2022/09/28 01:23:22;;;;;;;0.10;0.10;;;9.40;99.90;;;;;;5026957;28;20085;-73
2022/09/28 01:26:19;;;;;;;0.10;0.10;;;9.40;99.90;;;;;;5024858;28;20107;-72
2022/09/28 01:28:46;;;;;;;0.10;0.10;;;9.40;99.90;;;;;;5021420;28;20124;-72
2022/09/28 01:31:14;;;;;;;0.10;0.10;;;9.40;99.90;;;;;;5031595;28;20048;-72
2022/09/28 01:33:47;;;;;;;0.10;0.10;;;9.40;99.90;;;;;;5029838;28;20041;-72
2022/09/28 01:36:24;;;;;;;0.10;0.10;;;9.40;99.90;;;;;;5021264;28;20233;-72
2022/09/28 01:38:56;;;;;;;0.10;0.10;;;9.40;99.90;;;;;;5028484;28;20128;-71
2022/09/28 01:41:24;;;;;;;0.10;0.10;;;9.40;99.90;;;;;;5031943;28;20055;-72
2022/09/28 01:44:01;;;;;;;0.00;0.00;;;9.30;99.90;;;;;;5025247;28;20056;-71
2022/09/28 01:46:34;;;;;;;0.15;0.15;;;9.30;99.90;;;;;;5027375;28;20485;-71
2022/09/28 01:49:29;;;;;;;0.10;0.10;;;9.30;99.90;;;;;;5028807;28;20069;-72
2022/09/28 01:52:26;;;;;;;1.25;0.47;;;9.30;99.90;;;;;;5031046;28;20061;-72
2022/09/28 01:55:11;;;;;;;0.20;0.20;;;9.30;99.90;;;;;;5039996;28;20042;-72
2022/09/28 01:58:07;;;;;;;0.20;0.20;;;9.30;99.90;;;;;;5047069;28;20084;-72
2022/09/28 02:00:37;;;;;;;0.25;0.25;;;9.30;99.90;;;;;;5025257;28;20511;-72
2022/09/28 02:03:13;;;;;;;0.10;0.10;;;9.20;99.90;;;;;;5031930;28;20105;-72
2022/09/28 02:05:40;;;;;;;0.17;0.17;;;9.20;99.90;;;;;;5037706;28;20048;-72
2022/09/28 02:08:27;;;;;;;0.10;0.10;;;9.20;99.90;;;;;;5045523;28;20037;-72
2022/09/28 02:11:19;;;;;;;0.10;0.10;;;9.20;99.90;;;;;;5028778;28;20058;-72
2022/09/28 02:13:48;;;;;;;0.10;0.10;;;9.30;99.90;;;;;;5027489;28;20412;-72
2022/09/28 02:16:21;;;;;;;0.10;0.10;;;9.30;99.90;;;;;;5028138;28;20046;-72
2022/09/28 02:18:46;;;;;;;0.20;0.20;;;9.30;99.90;;;;;;5052759;28;20059;-72
2022/09/28 02:21:21;;;;;;;0.10;0.10;;;9.30;99.90;;;;;;5048748;28;20041;-72
2022/09/28 02:23:55;;;;;;;0.10;0.10;;;9.30;99.90;;;;;;5015738;28;20545;-72
2022/09/28 02:26:26;;;;;;;0.10;0.10;;;9.30;99.90;;;;;;5016567;28;20541;-72
2022/09/28 02:28:51;;;;;;;0.10;0.10;;;9.30;99.90;;;;;;5024119;28;20112;-72
2022/09/28 02:31:17;;;;;;;0.05;0.05;;;9.30;99.90;;;;;;5032602;28;20124;-72
2022/09/28 02:33:45;;;;;;;0.10;0.10;;;9.30;99.90;;;;;;5036205;28;20052;-71
2022/09/28 02:36:10;;;;;;;0.10;0.10;;;9.30;99.90;;;;;;5050947;28;20107;-72
2022/09/28 02:38:36;;;;;;;0.32;0.32;;;9.30;99.90;;;;;;5050668;28;20052;-72
2022/09/28 02:41:25;;;;;;;0.10;0.10;;;9.30;99.90;;;;;;5041470;28;20053;-72
2022/09/28 02:44:02;;;;;;;0.10;0.10;;;9.30;99.90;;;;;;5033701;28;20045;-73
2022/09/28 02:46:47;;;;;;;0.10;0.10;;;9.30;99.90;;;;;;5034028;28;20037;-73
2022/09/28 02:49:40;;;;;;;0.00;0.00;;;9.30;99.90;;;;;;5049471;28;20041;-72
2022/09/28 02:52:31;;;;;;;0.10;0.10;;;9.20;99.90;;;;;;5042642;28;20045;-73
2022/09/28 02:55:16;;;;;;;0.10;0.10;;;9.20;99.90;;;;;;5037208;28;20049;-73
2022/09/28 02:58:12;;;;;;;0.10;0.10;;;9.30;99.90;;;;;;5043208;28;20052;-73
2022/09/28 03:00:53;;;;;;;0.00;0.00;;;9.20;99.90;;;;;;5023946;28;20093;-73
2022/09/28 03:03:41;;;;;;;0.00;0.00;;;9.20;99.90;;;;;;5034573;28;20049;-73
2022/09/28 03:06:13;;;;;;;0.13;0.13;;;9.20;99.90;;;;;;5025941;28;20099;-73
2022/09/28 03:08:56;;;;;;;0.05;0.05;;;9.20;99.90;;;;;;5035027;28;20045;-73
2022/09/28 03:11:25;;;;;;;;;;;9.20;99.90;;;;;;5045854;28;20044;-73
2022/09/28 03:13:51;;;;;;;0.00;0.00;;;9.20;99.90;;;;;;5034165;28;19925;-73
2022/09/28 03:16:18;;;;;;;0.85;0.85;;;9.20;99.90;;;;;;5035838;28;20045;-73
2022/09/28 03:18:45;;;;;;;0.30;0.30;;;9.30;99.90;;;;;;5031186;28;20036;-73
2022/09/28 03:21:11;;;;;;;0.10;0.10;;;9.30;99.90;;;;;;5040184;28;20084;-72
2022/09/28 03:23:37;;;;;;;0.20;0.20;;;9.30;99.90;;;;;;5056182;28;20485;-73
2022/09/28 03:26:03;;;;;;;0.10;0.10;;;9.30;99.90;;;;;;5038985;28;20103;-73
2022/09/28 03:28:29;;;;;;;0.10;0.10;;;9.30;99.90;;;;;;5031001;28;20052;-73
2022/09/28 03:30:55;;;;;;;0.20;0.20;;;9.30;99.90;;;;;;5029776;28;20046;-72
2022/09/28 03:33:21;;;;;;;0.10;0.10;;;9.30;99.90;;;;;;5026669;28;20045;-72
2022/09/28 03:35:49;;;;;;;0.10;0.10;;;9.30;99.90;;;;;;5035437;28;20193;-72
2022/09/28 03:38:15;;;;;;;0.10;0.10;;;9.40;99.90;;;;;;5015191;28;20054;-71
2022/09/28 03:40:41;;;;;;;0.40;0.40;;;9.30;99.90;;;;;;5021956;28;20111;-72
2022/09/28 03:43:07;;;;;;;0.10;0.10;;;9.30;99.90;;;;;;5027004;28;20053;-72
2022/09/28 03:45:33;;;;;;;0.10;0.10;;;9.30;99.90;;;;;;5033111;28;20489;-72
2022/09/28 03:47:59;;;;;;;0.00;0.00;;;9.40;99.90;;;;;;5028778;28;20072;-72
2022/09/28 03:50:25;;;;;;;0.10;0.10;;;9.40;99.90;;;;;;5048097;28;20048;-72
2022/09/28 03:52:50;;;;;;;0.00;0.00;;;9.40;99.90;;;;;;5023402;28;20056;-72
2022/09/28 03:55:16;;;;;;;0.10;0.10;;;9.40;99.90;;;;;;5048816;28;20484;-72
2022/09/28 03:57:41;;;;;;;0.10;0.10;;;9.40;99.90;;;;;;5032911;28;20105;-72
2022/09/28 04:00:08;;;;;;;0.10;0.10;;;9.40;99.90;;;;;;5035545;28;20048;-72
2022/09/28 04:02:34;;;;;;;0.10;0.10;;;9.30;99.90;;;;;;5039326;28;20053;-72
2022/09/28 04:04:59;;;;;;;0.10;0.10;;;9.40;99.90;;;;;;5035201;28;20113;-72
2022/09/28 04:07:25;;;;;;;0.10;0.10;;;9.40;99.90;;;;;;5027839;28;20053;-72
2022/09/28 04:09:51;;;;;;;0.00;0.00;;;9.40;99.90;;;;;;5022928;28;20128;-72
2022/09/28 04:12:16;;;;;;;0.10;0.10;;;9.30;99.90;;;;;;5031779;28;20049;-72
2022/09/28 04:14:42;;;;;;;0.00;0.00;;;9.30;99.90;;;;;;5032567;28;20045;-72
2022/09/28 04:17:07;;;;;;;0.10;0.10;;;9.30;99.90;;;;;;5032621;28;20055;-72
2022/09/28 04:19:33;;;;;;;0.32;0.32;;;9.30;99.90;;;;;;5025021;28;20045;-72
2022/09/28 04:22:00;;;;;;;0.55;0.55;;;9.30;99.90;;;;;;5029718;28;20064;-72
2022/09/28 04:24:26;;;;;;;0.43;0.43;;;9.30;99.90;;;;;;5031500;28;20072;-72
2022/09/28 04:29:14;;;;;;;0.00;0.00;;;9.30;99.90;;;;;;5046820;28;20524;-72
2022/09/28 04:29:40;;;;;;;0.30;0.30;;;9.30;99.90;;;;;;5039248;28;20056;-72
2022/09/28 04:32:06;;;;;;;0.00;0.00;;;9.30;99.90;;;;;;5025875;28;20041;-72
2022/09/28 04:34:32;;;;;;;0.30;0.30;;;9.30;99.90;;;;;;5016947;28;20049;-72
2022/09/28 04:36:57;;;;;;;0.00;0.00;;;9.30;99.90;;;;;;5015195;28;20493;-72
2022/09/28 04:39:23;;;;;;;0.10;0.10;;;9.30;99.90;;;;;;5043952;28;20048;-72
2022/09/28 04:41:48;;;;;;;0.10;0.10;;;9.40;99.90;;;;;;5025699;28;20037;-72
2022/09/28 04:44:14;;;;;;;0.08;0.08;;;9.40;99.90;;;;;;5034928;28;20041;-72
2022/09/28 04:46:40;;;;;;;0.10;0.10;;;9.40;99.90;;;;;;5028190;28;20049;-72
2022/09/28 04:49:05;;;;;;;0.03;0.03;;;9.40;99.90;;;;;;5039179;28;20116;-72
2022/09/28 04:51:31;;;;;;;0.10;0.10;;;9.30;99.90;;;;;;5044917;28;20049;-72
2022/09/28 04:53:57;;;;;;;0.10;0.10;;;9.30;99.90;;;;;;5021457;28;20474;-72
2022/09/28 04:56:23;;;;;;;0.10;0.10;;;9.20;99.90;;;;;;5018698;28;20089;-72
2022/09/28 04:58:49;;;;;;;0.10;0.10;;;9.20;99.90;;;;;;5042425;28;20075;-72
2022/09/28 05:01:16;;;;;;;0.10;0.10;;;9.20;99.90;;;;;;5037661;28;20105;-73
2022/09/28 05:03:43;;;;;;;0.10;0.10;;;9.20;99.90;;;;;;5028888;28;20128;-72
2022/09/28 05:06:11;;;;;;;0.00;0.00;;;9.10;99.90;;;;;;5030315;28;20072;-73
2022/09/28 05:08:37;;;;;;;0.10;0.10;;;9.10;99.90;;;;;;5023783;28;20053;-72
2022/09/28 05:11:05;;;;;;;0.10;0.10;;;9.20;99.90;;;;;;5028935;28;20413;-73
2022/09/28 05:13:31;;;;;;;0.05;0.05;;;9.00;99.90;;;;;;5034278;28;20107;-73
2022/09/28 05:15:58;;;;;;;0.08;0.08;;;9.00;99.90;;;;;;5051404;28;20053;-73
2022/09/28 05:18:24;;;;;;;0.10;0.10;;;9.00;99.90;;;;;;5033020;28;20046;-73
2022/09/28 05:20:50;;;;;;;0.10;0.10;;;9.00;99.90;;;;;;5035464;28;20060;-73
2022/09/28 05:23:16;;;;;;;0.00;0.00;;;9.00;99.90;;;;;;5030125;28;20045;-72
2022/09/28 05:25:44;;;;;;;0.10;0.10;;;8.90;99.90;;;;;;5035186;28;20052;-73
2022/09/28 05:28:10;;;;;;;0.15;0.15;;;8.90;99.90;;;;;;5037793;28;20572;-73
2022/09/28 05:30:35;;;;;;;0.10;0.10;;;8.90;99.90;;;;;;5029064;28;20049;-72
2022/09/28 05:33:02;;;;;;;0.10;0.10;;;8.90;99.90;;;;;;5038413;28;20041;-72
2022/09/28 05:35:28;;;;;;;0.10;0.10;;;8.90;99.90;;;;;;5046157;28;20041;-73
2022/09/28 05:37:54;;;;;;;0.10;0.10;;;8.90;99.90;;;;;;5029925;28;20052;-73
2022/09/28 05:40:20;;;;;;;0.10;0.10;;;8.80;99.90;;;;;;5028017;28;20041;-73
2022/09/28 05:42:45;;;;;;;0.10;0.10;;;8.80;99.90;;;;;;5033626;28;20051;-73
2022/09/28 05:45:11;;;;;;;0.10;0.10;;;8.80;99.90;;;;;;5044814;28;20091;-73
2022/09/28 05:47:41;;;;;;;0.00;0.00;;;8.80;99.90;;;;;;5032679;28;20053;-73
2022/09/28 05:50:10;;;;;;;0.40;0.40;;;8.80;99.90;;;;;;5029207;28;20049;-73
2022/09/28 05:52:37;;;;;;;0.13;0.13;;;8.80;99.90;;;;;;5026811;28;20048;-74
2022/09/28 05:55:06;;;;;;;0.00;0.00;;;8.70;99.90;;;;;;5041948;28;20041;-74
2022/09/28 05:57:31;;;;;;;0.10;0.10;;;8.60;99.90;;;;;;5027406;28;20056;-74
2022/09/28 05:59:57;;;;;;;0.10;0.10;;;8.60;99.90;;;;;;5025985;28;20131;-74
2022/09/28 06:02:23;;;;;;;0.10;0.10;;;8.60;99.90;;;;;;5028420;28;20144;-75
2022/09/28 06:04:50;;;;;;;0.10;0.10;;;8.60;99.90;;;;;;5019815;28;20124;-72
2022/09/28 06:07:19;;;;;;;0.73;0.73;;;8.50;99.90;;;;;;5016522;28;20056;-72
2022/09/28 06:09:45;;;;;;;0.10;0.10;;;8.50;99.90;;;;;;5042869;28;20132;-72
2022/09/28 06:12:10;;;;;;;0.10;0.10;;;8.50;99.90;;;;;;5028631;28;20120;-72
2022/09/28 06:14:37;;;;;;;0.10;0.10;;;8.50;99.90;;;;;;5028565;28;20063;-72
2022/09/28 06:17:03;;;;;;;0.10;0.10;;;8.50;99.90;;;;;;5028841;28;20049;-72
2022/09/28 06:19:29;;;;;;;0.32;0.32;;;8.70;99.90;;;;;;5028282;28;20041;-72
2022/09/28 06:21:54;;;;;;;0.10;0.10;;;8.70;99.90;;;;;;5036695;28;20042;-73
2022/09/28 06:24:20;;;;;;;0.10;0.10;;;8.70;99.90;;;;;;5031756;28;20041;-73
2022/09/28 06:26:45;;;;;;;0.03;0.03;;;8.70;99.90;;;;;;5046375;28;20076;-73
2022/09/28 06:29:13;;;;;;;0.10;0.10;;;8.80;99.90;;;;;;5032176;28;20045;-72
2022/09/28 06:31:38;;;;;;;0.10;0.10;;;8.80;99.90;;;;;;5037970;28;20045;-72
2022/09/28 06:34:04;;;;;;;0.10;0.10;;;8.80;99.90;;;;;;5032725;28;20383;-73
2022/09/28 06:36:32;;;;;;;0.10;0.10;;;8.90;99.90;;;;;;5024988;28;20060;-73
2022/09/28 06:38:58;;;;;;;0.10;0.10;;;9.00;99.90;;;;;;5038871;28;20045;-73
2022/09/28 06:41:24;;;;;;;0.00;0.00;;;9.00;99.90;;;;;;5027162;28;20052;-73
2022/09/28 06:43:51;;;;;;;0.30;0.30;;;9.00;99.90;;;;;;5022446;28;20038;-73
2022/09/28 06:46:16;;;;;;;0.10;0.10;;;9.00;99.90;;;;;;5018991;28;20460;-73
2022/09/28 06:48:43;;;;;;;0.10;0.10;;;9.10;99.90;;;;;;5018818;28;20080;-73
2022/09/28 06:51:09;;;;;;;0.10;0.10;;;9.10;99.90;;;;;;5019155;28;20058;-73
2022/09/28 06:53:35;;;;;;;0.20;0.20;;;9.10;99.90;;;;;;5029583;28;20037;-73
2022/09/28 06:56:01;;;;;;;0.10;0.10;;;9.20;99.90;;;;;;5023667;28;20034;-73
2022/09/28 06:58:27;;;;;;;0.10;0.10;;;9.20;99.90;;;;;;5025723;28;20046;-74
2022/09/28 07:00:58;;;;;;;0.10;0.10;;;9.30;99.90;;;;;;5026765;28;20055;-73
2022/09/28 07:03:23;;;;;;;0.05;0.05;;;9.30;99.90;;;;;;5025282;28;20474;-73
2022/09/28 07:05:52;;;;;;;0.10;0.10;;;9.40;99.90;;;;;;5031633;28;20112;-73
2022/09/28 07:08:23;;;;;;;0.00;0.00;;;9.40;99.90;;;;;;5011566;28;20038;-73
2022/09/28 07:10:55;;;;;;;0.20;0.20;;;9.40;99.90;;;;;;5018404;28;20602;-73
2022/09/28 07:13:22;;;;;;;0.10;0.10;;;9.50;99.90;;;;;;5041318;28;20545;-73
2022/09/28 07:15:47;;;;;;;0.10;0.10;;;9.50;99.90;;;;;;5031286;28;20562;-73
2022/09/28 07:18:13;;;;;;;0.10;0.10;;;9.60;99.90;;;;;;5023360;28;20046;-73
2022/09/28 07:20:39;;;;;;;0.10;0.10;;;9.60;99.90;;;;;;5037637;28;20620;-73
2022/09/28 07:23:06;;;;;;;0.10;0.10;;;9.70;99.90;;;;;;5025667;28;20052;-73
2022/09/28 07:25:35;;;;;;;0.10;0.10;;;9.70;99.90;;;;;;5032706;28;20120;-73
2022/09/28 07:28:02;;;;;;;0.10;0.10;;;9.80;99.90;;;;;;5037730;28;20107;-74
2022/09/28 07:30:31;;;;;;;0.10;0.10;;;9.80;99.90;;;;;;5029414;28;20057;-74
2022/09/28 07:32:58;;;;;;;0.20;0.20;;;9.90;99.90;;;;;;5022883;28;20445;-74
2022/09/28 07:35:23;;;;;;;0.03;0.03;;;9.90;99.90;;;;;;5032536;28;20089;-74
2022/09/28 07:37:58;;;;;;;0.10;0.10;;;9.90;99.90;;;;;;5022285;28;20075;-74
2022/09/28 07:43:07;;;;;;;0.10;0.10;;;10.00;99.90;;;;;;5021519;28;20556;-74
2022/09/28 07:45:37;;;;;;;0.10;0.10;;;10.10;99.90;;;;;;5039137;28;20033;-74
2022/09/28 07:48:03;;;;;;;0.00;0.00;;;10.20;99.90;;;;;;5026312;28;20057;-75
2022/09/28 07:50:29;;;;;;;0.00;0.00;;;10.20;99.90;;;;;;5038367;28;20116;-74
2022/09/28 07:52:56;;;;;;;0.10;0.10;;;10.20;99.90;;;;;;5035100;28;20486;-75
2022/09/28 07:55:22;;;;;;;0.32;0.32;;;10.30;99.90;;;;;;5023930;28;20144;-75
2022/09/28 07:58:00;;;;;;;0.10;0.10;;;10.30;99.90;;;;;;5031025;28;20081;-75
2022/09/28 08:00:31;;;;;;;0.03;0.03;;;10.30;99.90;;;;;;5027596;28;20452;-75
2022/09/28 08:03:00;;;;;;;0.10;0.10;;;10.40;99.90;;;;;;5024799;28;20038;-75
2022/09/28 08:05:30;;;;;;;0.10;0.10;;;10.40;99.90;;;;;;5034233;28;20148;-76
2022/09/28 08:07:57;;;;;;;0.05;0.05;;;10.40;99.90;;;;;;5035093;28;20132;-76
2022/09/28 08:10:24;;;;;;;0.10;0.10;;;10.50;99.90;;;;;;5023558;28;20049;-76
2022/09/28 08:13:01;;;;;;;0.10;0.10;;;10.50;99.90;;;;;;5029476;28;20132;-75
2022/09/28 08:15:27;;;;;;;0.10;0.10;;;10.60;99.90;;;;;;5014567;28;20056;-75
2022/09/28 08:17:52;;;;;;;0.00;0.00;;;11.00;99.90;;;;;;5038257;28;20041;-75
2022/09/28 08:23:04;;;;;;;0.10;0.10;;;10.90;99.90;;;;;;5042295;28;20048;-75
2022/09/28 08:25:30;;;;;;;0.10;0.10;;;11.10;99.90;;;;;;5020749;28;20180;-75
2022/09/28 08:27:55;;;;;;;0.10;0.10;;;11.80;99.90;;;;;;5027779;28;20108;-76
2022/09/28 08:30:21;;;;;;;0.00;0.00;;;11.70;99.90;;;;;;5020351;28;20445;-75
2022/09/28 08:32:50;;;;;;;0.10;0.10;;;12.20;99.90;;;;;;5031033;28;20616;-75
2022/09/28 08:35:15;;;;;;;0.00;0.00;;;12.20;99.90;;;;;;5029191;28;20049;-75
2022/09/28 08:37:41;;;;;;;0.10;0.10;;;13.10;99.90;;;;;;5025550;28;20045;-75
2022/09/28 08:40:17;;;;;;;0.10;0.10;;;14.00;99.90;;;;;;5020504;28;20060;-76
2022/09/28 08:42:44;;;;;;;0.00;0.00;;;14.80;99.90;;;;;;5027823;28;20114;-75
2022/09/28 08:45:34;;;;;;;0.00;0.00;;;15.50;99.90;;;;;;5027357;28;20409;-75
2022/09/28 08:51:13;;;;;;;0.30;0.30;;;16.10;99.90;;;;;;5020422;28;20549;-75
2022/09/28 08:54:03;;;;;;;0.10;0.10;;;16.10;99.90;;;;;;5028707;28;20060;-75
2022/09/28 08:56:38;;;;;;;0.10;0.10;;;16.00;99.90;;;;;;5030981;28;20124;-75
2022/09/28 08:59:10;;;;;;;0.05;0.05;;;15.50;99.90;;;;;;5022131;28;20048;-76
2022/09/28 09:01:41;;;;;;;0.10;0.10;;;15.00;99.90;;;;;;5044687;28;20440;-76
2022/09/28 09:04:07;;;;;;;0.10;0.10;;;14.60;99.90;;;;;;5027550;28;20087;-76
2022/09/28 09:07:00;;;;;;;0.10;0.10;;;14.10;99.90;;;;;;5028429;28;20108;-76
2022/09/28 09:09:51;;;;;;;0.08;0.08;;;13.70;99.90;;;;;;5022999;28;20041;-76
2022/09/28 09:12:39;;;;;;;0.10;0.10;;;13.40;99.90;;;;;;5028939;28;20068;-77
2022/09/28 09:15:23;;;;;;;0.47;0.47;;;13.50;99.90;;;;;;5028377;28;20498;-76
2022/09/28 09:18:07;;;;;;;0.10;0.10;;;14.40;99.90;;;;;;5029552;28;20132;-75
2022/09/28 09:20:55;;;;;;;0.10;0.10;;;15.30;99.90;;;;;;5023283;28;20042;-75
2022/09/28 09:23:41;;;;;;;0.10;0.10;;;16.10;99.90;;;;;;5028032;28;20057;-74
2022/09/28 09:26:20;;;;;;;0.10;0.10;;;16.70;99.90;;;;;;5024775;28;20080;-74
2022/09/28 09:28:57;;;;;;;0.00;0.00;;;17.40;99.90;;;;;;5036315;28;20116;-74
2022/09/28 09:31:31;;;;;;;0.10;0.10;;;17.80;99.90;;;;;;5029008;28;20049;-74
2022/09/28 09:34:33;;;;;;;0.00;0.00;;;17.30;99.90;;;;;;5020859;28;20053;-72
2022/09/28 09:37:23;;;;;;;0.10;0.10;;;17.50;99.90;;;;;;5012948;28;20060;-72
2022/09/28 09:40:15;;;;;;;0.10;0.10;;;17.90;99.90;;;;;;5020606;28;20038;-72
2022/09/28 09:43:13;;;;;;;0.10;0.10;;;18.10;99.90;;;;;;5023531;28;20083;-72
2022/09/28 09:46:03;;;;;;;0.00;0.00;;;18.50;99.90;;;;;;5030344;28;20806;-72
2022/09/28 09:48:47;;;;;;;0.10;0.10;;;18.70;99.90;;;;;;5029909;28;20041;-72
2022/09/28 09:51:22;;;;;;;0.10;0.10;;;18.40;99.90;;;;;;5027344;28;20124;-72
2022/09/28 09:54:02;;;;;;;0.15;0.15;;;17.90;99.90;;;;;;5031393;28;20041;-74
2022/09/28 09:56:38;;;;;;;0.10;0.10;;;17.20;99.90;;;;;;5022863;28;20128;-74
2022/09/28 09:59:12;;;;;;;0.20;0.20;;;16.40;99.90;;;;;;5028170;28;20045;-74
2022/09/28 10:01:40;;;;;;;0.10;0.10;;;15.70;99.90;;;;;;5024025;28;20038;-74
2022/09/28 10:04:21;;;;;;;0.00;0.00;;;15.30;99.90;;;;;;5028561;28;20144;-74
2022/09/28 10:06:48;;;;;;;0.10;0.10;;;15.10;99.90;;;;;;5027632;28;20041;-74
2022/09/28 10:09:27;;;;;;;0.10;0.10;;;15.00;99.90;;;;;;5040227;28;20053;-74
2022/09/28 10:11:53;;;;;;;0.10;0.10;;;14.90;99.90;;;;;;5030114;28;20048;-74
2022/09/28 10:14:21;;;;;;;0.10;0.10;;;14.90;99.90;;;;;;5036113;28;20049;-74
2022/09/28 10:16:49;;;;;;;0.00;0.00;;;14.90;99.90;;;;;;5028600;28;20048;-74
2022/09/28 10:19:19;;;;;;;0.00;0.00;;;15.10;99.90;;;;;;5019072;28;20096;-74
2022/09/28 10:21:49;;;;;;;0.10;0.10;;;15.00;99.90;;;;;;5028507;28;20033;-74
2022/09/28 10:24:28;;;;;;;0.03;0.03;;;15.00;99.90;;;;;;5033956;28;20115;-74
2022/09/28 10:26:57;;;;;;;0.10;0.10;;;15.00;99.90;;;;;;5018579;28;20482;-73
2022/09/28 10:29:25;;;;;;;0.10;0.10;;;15.00;99.90;;;;;;5022134;28;20084;-73
2022/09/28 10:31:53;;;;;;;0.10;0.10;;;15.00;99.90;;;;;;5038960;28;20370;-73
2022/09/28 10:34:26;;;;;;;0.00;0.00;;;14.90;99.90;;;;;;5017359;28;20059;-73
2022/09/28 10:36:57;;;;;;;0.10;0.10;;;14.80;99.90;;;;;;5033253;28;20512;-73
2022/09/28 10:39:36;;;;;;;0.00;0.00;;;14.60;99.90;;;;;;5035402;28;20048;-73
2022/09/28 10:42:07;;;;;;;0.10;0.10;;;14.50;99.90;;;;;;5021748;28;20114;-73
2022/09/28 10:44:43;;;;;;;0.10;0.10;;;14.30;99.90;;;;;;5032195;28;20068;-73
2022/09/28 10:47:14;;;;;;;0.10;0.10;;;14.10;99.90;;;;;;5029991;28;20052;-73
2022/09/28 10:49:42;;;;;;;0.10;0.10;;;14.00;99.90;;;;;;5038898;28;20037;-73
2022/09/28 10:52:39;;;;;;;0.00;0.00;;;13.90;99.90;;;;;;5034487;28;20072;-73
2022/09/28 10:55:19;;;;;;;0.10;0.10;;;13.80;99.90;;;;;;5039895;28;20046;-73
2022/09/28 10:57:45;;;;;;;0.05;0.05;;;13.70;99.90;;;;;;5037864;28;20045;-72
2022/09/28 11:00:33;;;;;;;0.00;0.00;;;13.70;99.90;;;;;;5029045;28;20056;-73
2022/09/28 11:03:00;;;;;;;0.10;0.10;;;14.20;99.90;;;;;;5036804;28;20388;-73
2022/09/28 11:05:26;;;;;;;0.10;0.10;;;14.70;99.90;;;;;;5040484;28;20041;-73
2022/09/28 11:07:54;;;;;;;0.10;0.10;;;15.20;99.90;;;;;;5034912;28;20087;-73
2022/09/28 11:10:28;;;;;;;1.17;0.55;;;15.60;99.90;;;;;;5026926;28;20046;-73
2022/09/28 11:12:54;;;;;;;0.10;0.10;;;16.10;99.90;;;;;;5032775;28;20081;-74
2022/09/28 11:15:30;;;;;;;0.00;0.00;;;16.30;99.90;;;;;;5033124;28;20045;-74
2022/09/28 11:18:18;;;;;;;0.10;0.10;;;16.60;99.90;;;;;;5026408;28;20049;-74
2022/09/28 11:20:43;;;;;;;0.00;0.00;;;16.90;99.90;;;;;;5033991;28;20805;-74
2022/09/28 11:23:17;;;;;;;0.00;0.00;;;17.30;99.90;;;;;;5025591;28;20041;-74
2022/09/28 11:25:54;;;;;;;0.10;0.10;;;17.30;99.90;;;;;;5035719;28;20408;-73
2022/09/28 11:28:32;;;;;;;0.10;0.10;;;17.90;99.90;;;;;;5030486;28;20132;-74
2022/09/28 11:30:58;;;;;;;0.10;0.10;;;17.10;99.90;;;;;;5021019;28;20141;-73
2022/09/28 11:33:36;;;;;;;0.10;0.10;;;16.60;99.90;;;;;;5032149;28;20045;-73
2022/09/28 11:36:15;;;;;;;0.10;0.10;;;16.20;99.90;;;;;;5028675;28;20419;-73
2022/09/28 11:39:10;;;;;;;0.08;0.08;;;16.90;99.90;;;;;;5035549;28;20047;-73
2022/09/28 11:41:41;;;;;;;0.00;0.00;;;17.40;99.90;;;;;;5033382;28;20084;-73
2022/09/28 11:44:33;;;;;;;0.00;0.00;;;18.00;99.90;;;;;;5031319;28;20053;-75
2022/09/28 11:47:17;;;;;;;0.00;0.00;;;17.90;99.90;;;;;;5018353;28;20172;-73
2022/09/28 11:49:44;;;;;;;0.00;0.00;;;18.40;99.90;;;;;;5028009;28;20535;-73
2022/09/28 11:52:26;;;;;;;0.10;0.10;;;17.60;99.90;;;;;;5032235;28;20045;-73
2022/09/28 11:55:02;;;;;;;0.10;0.10;;;17.10;99.90;;;;;;5030919;28;20072;-73
2022/09/28 11:57:35;;;;;;;0.00;0.00;;;16.60;99.90;;;;;;5028965;28;20080;-72
2022/09/28 12:00:30;;;;;;;0.10;0.10;;;17.50;99.90;;;;;;5024437;28;20033;-73
2022/09/28 12:03:08;;;;;;;0.05;0.05;;;18.10;99.90;;;;;;5029019;28;20351;-73
2022/09/28 12:05:38;;;;;;;0.00;0.00;;;18.40;99.90;;;;;;5040785;28;20041;-73
2022/09/28 12:08:13;;;;;;;0.10;0.10;;;18.80;99.90;;;;;;5040372;28;20064;-73
2022/09/28 12:10:46;;;;;;;0.10;0.10;;;19.40;99.90;;;;;;5019740;28;20128;-73
2022/09/28 12:13:25;;;;;;;0.00;0.00;;;19.70;99.90;;;;;;5037780;28;20155;-73
2022/09/28 12:16:07;;;;;;;0.00;0.00;;;19.90;99.90;;;;;;5043928;28;20511;-73
2022/09/28 12:19:00;;;;;;;0.00;0.00;;;20.10;99.90;;;;;;5033239;28;20048;-73
2022/09/28 12:21:35;;;;;;;0.00;0.00;;;20.30;99.90;;;;;;5026285;28;20045;-73
2022/09/28 12:24:32;;;;;;;0.10;0.10;;;20.40;99.90;;;;;;5041776;28;20496;-74
2022/09/28 12:27:26;;;;;;;0.00;0.00;;;20.80;99.90;;;;;;5028026;28;20473;-73
2022/09/28 12:30:14;;;;;;;0.00;0.00;;;20.50;99.90;;;;;;5020825;28;20038;-73
2022/09/28 12:33:00;;;;;;;0.00;0.00;;;20.50;99.90;;;;;;5014789;28;20081;-73
2022/09/28 12:35:43;;;;;;;0.03;0.03;;;19.40;99.90;;;;;;5047380;28;20052;-73
2022/09/28 12:38:37;;;;;;;0.00;0.00;;;18.60;99.90;;;;;;5033853;28;20077;-73
2022/09/28 12:41:11;;;;;;;0.00;0.00;;;17.90;99.90;;;;;;5035641;28;20061;-73
2022/09/28 12:44:16;;;;;;;0.00;0.00;;;17.60;99.90;;;;;;5019138;28;20374;-74
2022/09/28 12:46:56;;;;;;;0.00;0.00;;;17.50;99.90;;;;;;5029427;28;20045;-73
2022/09/28 12:49:46;;;;;;;0.08;0.08;;;17.10;99.90;;;;;;5038237;28;20042;-73
2022/09/28 12:52:42;;;;;;;0.03;0.03;;;16.70;99.90;;;;;;5023605;28;20041;-73
2022/09/28 12:55:28;;;;;;;0.00;0.00;;;16.40;99.90;;;;;;5010956;28;20494;-73
2022/09/28 12:58:03;;;;;;;0.15;0.10;;;16.20;99.90;;;;;;5023201;28;20081;-73
2022/09/28 13:00:48;;;;;;;0.00;0.00;;;15.90;99.90;;;;;;5031304;28;20091;-73
2022/09/28 13:03:20;;;;;;;0.10;0.10;;;16.90;99.90;;;;;;5037400;28;20052;-73
2022/09/28 13:06:13;;;;;;;0.10;0.10;;;17.20;99.90;;;;;;5032613;28;20060;-73
2022/09/28 13:09:09;;;;;;;0.00;0.00;;;16.80;99.90;;;;;;5036120;28;20465;-73
2022/09/28 13:11:42;;;;;;;0.00;0.00;;;16.40;99.90;;;;;;5027847;28;20145;-73
2022/09/28 13:14:27;;;;;;;0.00;0.00;;;16.20;99.90;;;;;;5014386;28;20091;-73
2022/09/28 13:17:03;;;;;;;0.00;0.00;;;16.20;99.90;;;;;;5027108;28;20132;-73
2022/09/28 13:19:51;;;;;;;0.00;0.00;;;16.80;99.90;;;;;;5032622;28;20037;-73
2022/09/28 13:22:38;;;;;;;0.17;0.17;;;17.70;99.90;;;;;;5034463;28;20551;-73
2022/09/28 13:25:11;;;;;;;0.00;0.00;;;18.40;99.90;;;;;;5030251;28;20045;-73
2022/09/28 13:27:44;;;;;;;;;;;19.10;99.90;;;;;;5037630;28;20397;-74
2022/09/28 13:30:13;;;;;;;0.00;0.00;;;19.50;99.90;;;;;;5034275;28;19932;-74